Time;durP1;ratioP1;P1;durP2;ratioP2;P2;SDS_P1;SDS_P2;PMS_P1;PMS_P2;Temp;Humidity;BMP_temperature;BMP_pressure;BME280_temperature;BME280_humidity;BME280_pressure;Samples;Min_cycle;Max_cycle;Signal;HPM_P1;HPM_P2
2022/03/08 00:00:00;;;;;;;8.10;4.18;;;1.40;99.90;;;;;;4996820;28;20137;-78
2022/03/08 00:02:26;;;;;;;8.93;5.10;;;1.30;99.90;;;;;;4996931;28;20053;-78
2022/03/08 00:04:51;;;;;;;6.40;4.30;;;1.30;99.90;;;;;;4997023;28;20042;-79
2022/03/08 00:07:17;;;;;;;7.57;4.57;;;1.30;99.90;;;;;;4996717;28;20049;-79
2022/03/08 00:09:46;;;;;;;7.13;4.40;;;1.30;99.90;;;;;;5013269;28;20042;-78
2022/03/08 00:12:12;;;;;;;6.85;4.20;;;1.40;99.90;;;;;;4996464;28;20539;-78
2022/03/08 00:14:37;;;;;;;6.70;4.38;;;1.30;99.90;;;;;;4996773;28;20042;-78
2022/03/08 00:17:03;;;;;;;7.20;4.22;;;1.30;99.90;;;;;;4996906;28;20393;-78
2022/03/08 00:19:29;;;;;;;6.18;3.85;;;1.30;99.90;;;;;;4996869;28;20573;-78
2022/03/08 00:21:55;;;;;;;7.75;4.10;;;1.30;99.90;;;;;;4996865;28;20078;-78
2022/03/08 00:24:21;;;;;;;7.72;4.22;;;1.30;99.90;;;;;;4996688;28;20125;-78
2022/03/08 00:26:48;;;;;;;7.18;4.30;;;1.30;99.90;;;;;;4996380;28;20493;-78
2022/03/08 00:29:13;;;;;;;6.72;4.28;;;1.30;99.90;;;;;;4996402;28;20038;-78
2022/03/08 00:31:39;;;;;;;6.15;4.45;;;1.30;99.90;;;;;;4996466;28;20053;-78
2022/03/08 00:34:05;;;;;;;7.68;4.03;;;1.30;99.90;;;;;;4996285;28;20046;-78
2022/03/08 00:36:32;;;;;;;9.30;4.25;;;1.30;99.90;;;;;;4996210;28;20048;-78
2022/03/08 00:38:57;;;;;;;7.63;4.07;;;1.30;99.90;;;;;;4996437;28;20041;-78
2022/03/08 00:41:23;;;;;;;8.40;4.38;;;1.30;99.90;;;;;;4996520;28;20037;-79
2022/03/08 00:43:51;;;;;;;5.88;3.97;;;1.20;99.90;;;;;;4996530;28;20411;-78
2022/03/08 00:46:16;;;;;;;6.45;4.53;;;1.20;99.90;;;;;;4996701;28;20049;-78
2022/03/08 00:48:42;;;;;;;6.85;4.20;;;1.20;99.90;;;;;;4996531;28;20123;-78
2022/03/08 00:51:08;;;;;;;6.32;3.47;;;1.20;99.90;;;;;;4996310;28;20386;-78
2022/03/08 00:53:34;;;;;;;7.90;4.15;;;1.20;99.90;;;;;;4996375;28;20503;-78
2022/03/08 00:56:00;;;;;;;6.53;4.05;;;1.20;99.90;;;;;;4995987;28;20050;-78
2022/03/08 00:58:25;;;;;;;8.70;5.07;;;1.20;99.90;;;;;;4996410;28;20084;-78
2022/03/08 01:00:52;;;;;;;7.57;4.50;;;1.20;99.90;;;;;;4996204;28;20172;-78
2022/03/08 01:03:17;;;;;;;8.63;4.15;;;1.10;99.90;;;;;;4996063;28;20034;-78
2022/03/08 01:05:43;;;;;;;7.05;4.60;;;1.10;99.90;;;;;;4995959;28;20097;-78
2022/03/08 01:08:09;;;;;;;8.85;4.15;;;1.10;99.90;;;;;;4996024;28;20508;-79
2022/03/08 01:10:36;;;;;;;9.63;4.28;;;1.10;99.90;;;;;;4995982;28;20478;-79
2022/03/08 01:13:02;;;;;;;6.28;4.40;;;1.00;99.90;;;;;;4996189;28;20115;-79
2022/03/08 01:15:28;;;;;;;6.30;4.20;;;1.00;99.90;;;;;;4995994;28;20497;-79
2022/03/08 01:17:55;;;;;;;6.60;4.10;;;1.00;99.90;;;;;;4996267;28;20099;-79
2022/03/08 01:20:21;;;;;;;6.85;4.50;;;1.00;99.90;;;;;;4996234;28;20046;-79
2022/03/08 01:22:47;;;;;;;6.68;4.60;;;1.00;99.90;;;;;;4998836;28;20049;-79
2022/03/08 01:25:15;;;;;;;7.95;4.90;;;1.00;99.90;;;;;;4999445;28;20038;-79
2022/03/08 01:27:41;;;;;;;7.30;4.45;;;1.00;99.90;;;;;;4999451;28;20065;-79
2022/03/08 01:30:10;;;;;;;7.55;4.40;;;0.90;99.90;;;;;;4999926;28;20156;-79
2022/03/08 01:32:36;;;;;;;9.10;4.80;;;0.90;99.90;;;;;;4999590;28;20132;-79
2022/03/08 01:35:03;;;;;;;7.53;4.53;;;0.90;99.90;;;;;;4999320;28;20046;-78
2022/03/08 01:37:28;;;;;;;7.70;4.70;;;0.90;99.90;;;;;;4999745;28;20044;-78
2022/03/08 01:39:54;;;;;;;6.90;4.90;;;0.80;99.90;;;;;;4999441;28;20050;-79
2022/03/08 01:42:22;;;;;;;6.70;4.65;;;0.80;99.90;;;;;;4999389;28;20128;-79
2022/03/08 01:44:48;;;;;;;7.95;5.35;;;0.80;99.90;;;;;;4999434;28;20060;-78
2022/03/08 01:47:20;;;;;;;7.15;4.93;;;0.70;99.90;;;;;;4999075;28;20037;-78
2022/03/08 01:49:46;;;;;;;9.85;5.28;;;0.70;99.90;;;;;;4999507;28;20049;-78
2022/03/08 01:52:14;;;;;;;9.15;5.60;;;0.70;99.90;;;;;;4999132;28;20401;-78
2022/03/08 01:54:41;;;;;;;8.40;5.35;;;0.70;99.90;;;;;;4999004;28;20077;-78
2022/03/08 01:57:08;;;;;;;8.82;5.63;;;0.70;99.90;;;;;;4999107;28;20049;-78
2022/03/08 01:59:34;;;;;;;11.68;5.82;;;0.70;99.90;;;;;;4999403;28;20061;-78
2022/03/08 02:02:00;;;;;;;8.90;5.60;;;0.60;99.90;;;;;;4999337;28;20490;-78
2022/03/08 02:04:26;;;;;;;10.25;6.53;;;0.60;99.90;;;;;;4999172;28;20096;-78
2022/03/08 02:06:51;;;;;;;8.80;6.38;;;0.60;99.90;;;;;;4998954;28;20497;-78
2022/03/08 02:09:17;;;;;;;8.88;6.15;;;0.60;99.90;;;;;;4999236;28;20104;-78
2022/03/08 02:11:44;;;;;;;8.88;5.72;;;0.60;99.90;;;;;;4999195;28;20510;-78
2022/03/08 02:14:09;;;;;;;11.05;7.25;;;0.60;99.90;;;;;;4998980;28;20486;-78
2022/03/08 02:16:35;;;;;;;15.70;6.40;;;0.50;99.90;;;;;;4998671;28;20050;-78
2022/03/08 02:19:01;;;;;;;10.20;6.35;;;0.50;99.90;;;;;;4998896;28;20042;-78
2022/03/08 02:21:28;;;;;;;10.63;6.68;;;0.50;99.90;;;;;;4998679;28;20050;-78
2022/03/08 02:23:54;;;;;;;10.98;7.30;;;0.50;99.90;;;;;;4998881;28;20072;-78
2022/03/08 02:26:23;;;;;;;11.02;8.07;;;0.50;99.90;;;;;;4998715;28;20401;-79
2022/03/08 02:28:48;;;;;;;12.77;6.88;;;0.50;99.90;;;;;;5016248;28;20042;-78
2022/03/08 02:31:17;;;;;;;10.70;7.18;;;0.50;99.90;;;;;;4998308;28;20408;-78
2022/03/08 02:33:44;;;;;;;10.77;7.82;;;0.50;99.90;;;;;;5014952;28;20042;-78
2022/03/08 02:36:10;;;;;;;11.20;7.60;;;0.50;99.90;;;;;;4998443;28;20049;-78
2022/03/08 02:38:35;;;;;;;11.63;7.20;;;0.50;99.90;;;;;;4998389;28;20046;-78
2022/03/08 02:41:01;;;;;;;11.45;7.72;;;0.50;99.90;;;;;;4998362;28;20046;-78
2022/03/08 02:43:27;;;;;;;10.52;6.63;;;0.50;99.90;;;;;;5015943;28;20033;-78
2022/03/08 02:45:52;;;;;;;11.25;7.57;;;0.50;99.90;;;;;;4998432;28;20440;-78
2022/03/08 02:48:18;;;;;;;11.27;8.20;;;0.50;99.90;;;;;;4998452;28;20393;-78
2022/03/08 02:50:43;;;;;;;10.80;7.70;;;0.50;99.90;;;;;;4998423;28;20488;-78
2022/03/08 02:53:09;;;;;;;11.27;7.90;;;0.50;99.90;;;;;;4998160;28;20038;-78
2022/03/08 02:55:37;;;;;;;11.48;7.63;;;0.50;99.90;;;;;;4998132;28;20052;-78
2022/03/08 02:58:04;;;;;;;13.23;7.82;;;0.50;99.90;;;;;;4998346;28;20108;-78
2022/03/08 03:00:31;;;;;;;12.27;8.13;;;0.50;99.90;;;;;;4998063;28;20525;-78
2022/03/08 03:02:57;;;;;;;12.23;8.07;;;0.50;99.90;;;;;;5015624;28;20091;-78
2022/03/08 03:05:24;;;;;;;13.35;8.43;;;0.50;99.90;;;;;;4997859;28;20444;-78
2022/03/08 03:07:50;;;;;;;11.73;8.55;;;0.40;99.90;;;;;;4997835;28;20539;-78
2022/03/08 03:10:20;;;;;;;13.23;8.75;;;0.40;99.90;;;;;;4997809;28;20049;-78
2022/03/08 03:12:46;;;;;;;15.63;10.15;;;0.40;99.90;;;;;;5015328;28;20077;-78
2022/03/08 03:15:13;;;;;;;12.35;8.73;;;0.40;99.90;;;;;;4997499;28;20048;-78
2022/03/08 03:17:39;;;;;;;15.82;9.32;;;0.40;99.90;;;;;;4997621;28;20041;-78
2022/03/08 03:20:07;;;;;;;13.82;8.80;;;0.30;99.90;;;;;;4997840;28;20482;-78
2022/03/08 03:22:34;;;;;;;14.45;8.98;;;0.30;99.90;;;;;;4997845;28;20053;-79
2022/03/08 03:25:00;;;;;;;14.32;9.35;;;0.30;99.90;;;;;;4997474;28;20060;-78
2022/03/08 03:27:26;;;;;;;14.20;9.80;;;0.30;99.90;;;;;;4997204;28;20054;-78
2022/03/08 03:29:51;;;;;;;14.18;9.43;;;0.30;99.90;;;;;;4997555;28;20141;-78
2022/03/08 03:32:19;;;;;;;14.45;10.25;;;0.30;99.90;;;;;;4997522;28;20081;-78
2022/03/08 03:34:45;;;;;;;14.95;9.60;;;0.30;99.90;;;;;;4997232;28;20448;-78
2022/03/08 03:37:10;;;;;;;17.67;10.32;;;0.20;99.90;;;;;;4997582;28;20058;-78
2022/03/08 03:39:36;;;;;;;12.82;9.85;;;0.30;99.90;;;;;;4997493;28;20501;-78
2022/03/08 03:42:03;;;;;;;14.40;10.65;;;0.20;99.90;;;;;;4997522;28;20056;-78
2022/03/08 03:44:28;;;;;;;15.10;10.20;;;0.30;99.90;;;;;;4996736;28;20050;-78
2022/03/08 03:46:54;;;;;;;18.13;11.57;;;0.30;99.90;;;;;;4997037;28;20049;-78
2022/03/08 03:49:20;;;;;;;15.07;10.73;;;0.30;99.90;;;;;;4997289;28;20049;-78
2022/03/08 03:51:47;;;;;;;16.23;11.07;;;0.30;99.90;;;;;;5014623;28;20054;-78
2022/03/08 03:54:13;;;;;;;16.48;10.00;;;0.30;99.90;;;;;;4996663;28;20050;-78
2022/03/08 03:56:38;;;;;;;13.50;9.82;;;0.30;99.90;;;;;;4996812;28;20107;-78
2022/03/08 03:59:04;;;;;;;15.77;10.23;;;0.30;99.90;;;;;;5014496;28;20042;-78
2022/03/08 04:01:30;;;;;;;16.80;11.25;;;0.30;99.90;;;;;;4997010;28;20409;-78
2022/03/08 04:03:55;;;;;;;16.20;10.65;;;0.20;99.90;;;;;;4996838;28;20045;-78
2022/03/08 04:06:21;;;;;;;21.17;12.05;;;0.20;99.90;;;;;;4997104;28;20129;-78
2022/03/08 04:08:46;;;;;;;14.23;10.15;;;0.20;99.90;;;;;;4996769;28;20045;-78
2022/03/08 04:11:12;;;;;;;17.38;11.23;;;0.20;99.90;;;;;;4996606;28;20038;-78
2022/03/08 04:13:37;;;;;;;17.80;11.57;;;0.20;99.90;;;;;;4996899;28;20112;-78
2022/03/08 04:16:04;;;;;;;16.90;12.10;;;0.20;99.90;;;;;;4996515;28;20037;-78
2022/03/08 04:18:29;;;;;;;16.50;11.48;;;0.20;99.90;;;;;;4996892;28;20045;-78
2022/03/08 04:20:55;;;;;;;17.35;11.23;;;0.20;99.90;;;;;;4996528;28;20041;-78
2022/03/08 04:23:20;;;;;;;18.05;12.25;;;0.20;99.90;;;;;;4996646;28;20049;-78
2022/03/08 04:25:46;;;;;;;23.95;14.00;;;0.20;99.90;;;;;;4996600;28;20082;-78
2022/03/08 04:28:12;;;;;;;18.33;11.70;;;0.20;99.90;;;;;;4996198;28;20096;-78
2022/03/08 04:30:37;;;;;;;18.23;12.60;;;0.20;99.90;;;;;;4996420;28;20077;-78
2022/03/08 04:33:03;;;;;;;17.92;11.95;;;0.20;99.90;;;;;;4996730;28;20056;-78
2022/03/08 04:35:29;;;;;;;18.98;11.68;;;0.20;99.90;;;;;;4996265;28;20493;-78
2022/03/08 04:37:54;;;;;;;18.98;12.93;;;0.20;99.90;;;;;;4996704;28;20136;-78
2022/03/08 04:40:20;;;;;;;19.58;13.50;;;0.20;99.90;;;;;;4996137;28;20052;-77
2022/03/08 04:42:46;;;;;;;20.60;13.68;;;0.30;99.90;;;;;;4996379;28;20030;-78
2022/03/08 04:45:13;;;;;;;22.67;14.25;;;0.30;99.90;;;;;;4996398;28;20401;-78
2022/03/08 04:47:38;;;;;;;20.55;13.57;;;0.30;99.90;;;;;;4996252;28;20042;-78
2022/03/08 04:50:10;;;;;;;21.48;12.70;;;0.30;99.90;;;;;;4996301;28;20042;-78
2022/03/08 04:52:36;;;;;;;20.25;13.50;;;0.30;99.90;;;;;;4996351;28;20042;-78
2022/03/08 04:55:03;;;;;;;20.00;12.50;;;0.30;99.90;;;;;;4996100;28;20042;-78
2022/03/08 04:57:29;;;;;;;18.13;12.55;;;0.30;99.90;;;;;;4999189;28;20168;-78
2022/03/08 04:59:54;;;;;;;18.88;12.52;;;0.30;99.90;;;;;;5000358;28;20132;-78
2022/03/08 05:02:20;;;;;;;18.27;12.65;;;0.40;99.90;;;;;;5000363;28;20359;-78
2022/03/08 05:04:46;;;;;;;18.55;12.18;;;0.30;99.90;;;;;;5000253;28;20050;-78
2022/03/08 05:07:11;;;;;;;19.83;12.27;;;0.30;99.90;;;;;;5017677;28;20060;-78
2022/03/08 05:09:37;;;;;;;20.27;12.63;;;0.40;99.90;;;;;;4999989;28;20052;-78
2022/03/08 05:12:03;;;;;;;18.17;12.30;;;0.40;99.90;;;;;;5000052;28;20056;-78
2022/03/08 05:14:29;;;;;;;20.38;12.30;;;0.40;99.90;;;;;;5000086;28;20046;-78
2022/03/08 05:16:54;;;;;;;20.25;13.15;;;0.40;99.90;;;;;;4999854;28;20045;-78
2022/03/08 05:19:20;;;;;;;18.65;12.45;;;0.40;99.90;;;;;;4999950;28;20049;-78
2022/03/08 05:21:46;;;;;;;21.63;12.93;;;0.40;99.90;;;;;;5017499;28;20037;-78
2022/03/08 05:24:12;;;;;;;20.80;12.60;;;0.40;99.90;;;;;;4999688;28;20417;-77
2022/03/08 05:26:37;;;;;;;19.15;13.38;;;0.40;99.90;;;;;;4999450;28;20061;-78
2022/03/08 05:29:04;;;;;;;17.92;12.32;;;0.40;99.90;;;;;;4999906;28;20112;-78
2022/03/08 05:31:30;;;;;;;18.92;12.75;;;0.40;99.90;;;;;;5017432;28;20128;-78
2022/03/08 05:33:56;;;;;;;19.42;12.50;;;0.50;99.90;;;;;;4999882;28;20117;-77
2022/03/08 05:36:21;;;;;;;20.02;13.40;;;0.50;99.90;;;;;;4999903;28;20448;-77
2022/03/08 05:38:47;;;;;;;22.02;14.43;;;0.50;99.90;;;;;;4999691;28;20069;-78
2022/03/08 05:41:13;;;;;;;19.88;12.85;;;0.50;99.90;;;;;;4999443;28;20449;-78
2022/03/08 05:43:38;;;;;;;17.95;12.95;;;0.40;99.90;;;;;;4999615;28;20096;-77
2022/03/08 05:46:04;;;;;;;20.20;12.68;;;0.50;99.90;;;;;;4999650;28;20482;-78
2022/03/08 05:48:30;;;;;;;20.45;13.30;;;0.50;99.90;;;;;;4999362;28;20464;-78
2022/03/08 05:50:55;;;;;;;18.15;12.75;;;0.50;99.90;;;;;;4999334;28;20050;-77
2022/03/08 05:53:21;;;;;;;19.85;12.68;;;0.40;99.90;;;;;;4998904;28;20042;-78
2022/03/08 05:55:46;;;;;;;19.88;12.57;;;0.40;99.90;;;;;;4998871;28;20054;-78
2022/03/08 05:58:12;;;;;;;20.65;13.05;;;0.40;99.90;;;;;;4997996;28;20474;-78
2022/03/08 06:00:38;;;;;;;19.95;12.65;;;0.40;99.90;;;;;;4998703;28;20085;-78
2022/03/08 06:03:04;;;;;;;19.80;12.85;;;0.50;99.90;;;;;;4999144;28;20045;-78
2022/03/08 06:05:29;;;;;;;19.88;13.15;;;0.40;99.90;;;;;;4998587;28;20464;-77
2022/03/08 06:07:55;;;;;;;20.50;12.80;;;0.40;99.90;;;;;;4998933;28;20081;-78
2022/03/08 06:10:20;;;;;;;21.60;13.25;;;0.40;99.90;;;;;;4998632;28;20053;-78
2022/03/08 06:12:46;;;;;;;19.52;11.70;;;0.40;99.90;;;;;;4998993;28;20042;-78
2022/03/08 06:15:12;;;;;;;19.67;12.15;;;0.40;99.90;;;;;;4998543;28;20394;-78
2022/03/08 06:17:38;;;;;;;18.20;11.70;;;0.50;99.90;;;;;;4998861;28;20180;-78
2022/03/08 06:20:04;;;;;;;20.48;11.77;;;0.50;99.90;;;;;;4998815;28;20053;-78
2022/03/08 06:22:30;;;;;;;21.23;12.32;;;0.40;99.90;;;;;;4998688;28;20053;-78
2022/03/08 06:24:55;;;;;;;21.33;12.68;;;0.50;99.90;;;;;;4998481;28;20396;-78
2022/03/08 06:27:21;;;;;;;17.05;12.35;;;0.50;99.90;;;;;;4998216;28;20064;-78
2022/03/08 06:29:47;;;;;;;19.08;11.70;;;0.50;99.90;;;;;;4998341;28;20054;-78
2022/03/08 06:32:13;;;;;;;21.30;13.27;;;0.50;99.90;;;;;;4998375;28;20497;-78
2022/03/08 06:34:38;;;;;;;18.83;12.38;;;0.50;99.90;;;;;;4998197;28;20045;-78
2022/03/08 06:37:04;;;;;;;20.23;11.73;;;0.50;99.90;;;;;;4998253;28;20080;-78
2022/03/08 06:39:30;;;;;;;18.85;11.73;;;0.50;99.90;;;;;;4998476;28;20049;-78
2022/03/08 06:41:55;;;;;;;16.90;11.32;;;0.50;99.90;;;;;;4997972;28;20049;-78
2022/03/08 06:44:21;;;;;;;20.73;12.52;;;0.60;99.90;;;;;;4998116;28;20100;-78
2022/03/08 06:46:47;;;;;;;19.20;12.57;;;0.60;99.90;;;;;;4998344;28;20108;-78
2022/03/08 06:49:13;;;;;;;15.93;11.02;;;0.70;99.90;;;;;;4998355;28;20042;-78
2022/03/08 06:51:40;;;;;;;18.20;12.55;;;0.70;99.90;;;;;;4998265;28;20049;-78
2022/03/08 06:54:06;;;;;;;18.95;12.40;;;0.80;99.90;;;;;;4997948;28;20445;-78
2022/03/08 06:56:36;;;;;;;19.35;12.23;;;0.80;99.90;;;;;;4998056;28;20125;-78
2022/03/08 06:59:02;;;;;;;19.23;11.48;;;0.90;99.90;;;;;;4998007;28;20057;-77
2022/03/08 07:01:28;;;;;;;16.55;11.40;;;1.00;99.90;;;;;;4997745;28;20045;-78
2022/03/08 07:03:54;;;;;;;17.48;11.82;;;1.10;99.90;;;;;;4997937;28;20041;-78
2022/03/08 07:06:20;;;;;;;21.38;12.02;;;1.20;99.90;;;;;;4998041;28;20081;-78
2022/03/08 07:08:45;;;;;;;19.25;12.20;;;1.20;99.90;;;;;;4997978;28;20037;-79
2022/03/08 07:11:11;;;;;;;21.08;12.52;;;1.30;99.90;;;;;;4997755;28;20383;-78
2022/03/08 07:13:37;;;;;;;19.85;12.15;;;1.40;99.90;;;;;;4997572;28;20057;-78
2022/03/08 07:16:03;;;;;;;21.77;12.07;;;1.50;99.90;;;;;;4997585;28;20042;-78
2022/03/08 07:18:28;;;;;;;16.00;10.23;;;1.60;99.90;;;;;;4989878;28;20042;-76
2022/03/08 07:20:54;;;;;;;17.77;10.73;;;1.70;99.90;;;;;;4977420;28;20039;-78
2022/03/08 07:23:20;;;;;;;15.98;10.38;;;1.80;99.90;;;;;;4978009;28;20042;-81
2022/03/08 07:25:46;;;;;;;18.17;11.25;;;1.90;99.90;;;;;;4977960;28;20054;-77
2022/03/08 07:28:12;;;;;;;16.42;10.55;;;2.00;99.90;;;;;;4977621;28;20750;-77
2022/03/08 07:30:37;;;;;;;25.35;13.85;;;2.10;99.90;;;;;;4977628;28;20129;-76
2022/03/08 07:33:03;;;;;;;20.08;11.57;;;2.10;99.90;;;;;;4977453;28;20133;-77
2022/03/08 07:35:29;;;;;;;18.30;11.60;;;2.20;99.90;;;;;;4977488;28;20050;-77
2022/03/08 07:37:55;;;;;;;17.35;10.93;;;2.30;99.90;;;;;;4977432;28;20045;-77
2022/03/08 07:40:20;;;;;;;17.92;10.88;;;2.40;99.90;;;;;;4977691;28;20050;-77
2022/03/08 07:42:46;;;;;;;16.23;10.20;;;2.50;99.90;;;;;;4977663;28;20034;-78
2022/03/08 07:45:12;;;;;;;16.10;11.00;;;2.60;99.90;;;;;;4977277;28;20137;-78
2022/03/08 07:47:38;;;;;;;15.68;9.40;;;2.70;99.90;;;;;;4977504;28;20046;-78
2022/03/08 07:50:05;;;;;;;14.23;9.23;;;2.80;99.90;;;;;;4977480;28;20413;-78
2022/03/08 07:52:31;;;;;;;17.92;11.52;;;2.80;99.90;;;;;;4977153;28;20053;-78
2022/03/08 07:54:56;;;;;;;18.52;11.23;;;2.90;99.90;;;;;;4977187;28;20046;-78
2022/03/08 07:57:22;;;;;;;14.85;10.43;;;3.00;99.90;;;;;;4977172;28;20045;-77
2022/03/08 07:59:48;;;;;;;16.60;11.13;;;3.20;99.90;;;;;;4977112;28;20046;-78
2022/03/08 08:02:13;;;;;;;16.00;11.27;;;3.20;99.90;;;;;;4976954;28;20078;-78
2022/03/08 08:04:39;;;;;;;21.25;11.82;;;3.30;99.90;;;;;;4976936;28;20099;-78
2022/03/08 08:07:04;;;;;;;17.90;11.00;;;3.40;99.90;;;;;;4985677;28;20042;-78
2022/03/08 08:09:30;;;;;;;15.13;9.55;;;3.50;99.90;;;;;;4979940;28;20077;-78
2022/03/08 08:11:56;;;;;;;15.30;10.00;;;3.50;99.90;;;;;;4996206;28;20088;-78
2022/03/08 08:14:21;;;;;;;17.08;11.00;;;3.60;99.90;;;;;;4995899;28;20076;-78
2022/03/08 08:16:47;;;;;;;17.60;11.52;;;3.70;99.90;;;;;;4996225;28;20046;-78
2022/03/08 08:19:13;;;;;;;17.77;11.38;;;3.80;99.90;;;;;;4995466;28;20052;-78
2022/03/08 08:21:39;;;;;;;16.02;10.18;;;3.80;99.90;;;;;;4996123;28;20050;-79
2022/03/08 08:24:05;;;;;;;15.00;9.82;;;4.00;99.90;;;;;;4994783;28;20049;-78
2022/03/08 08:26:31;;;;;;;14.43;9.98;;;4.10;99.90;;;;;;4991831;28;20458;-78
2022/03/08 08:28:57;;;;;;;15.30;10.32;;;4.20;99.90;;;;;;4991345;28;20133;-78
2022/03/08 08:31:23;;;;;;;15.25;10.77;;;4.20;99.90;;;;;;4995250;28;20049;-79
2022/03/08 08:33:50;;;;;;;16.95;10.70;;;4.30;99.90;;;;;;4995675;28;20112;-79
2022/03/08 08:36:16;;;;;;;14.15;9.60;;;4.40;99.90;;;;;;4999605;28;20046;-79
2022/03/08 08:38:42;;;;;;;14.23;9.52;;;4.40;99.90;;;;;;4999117;28;20046;-78
2022/03/08 08:41:08;;;;;;;16.35;11.40;;;4.60;99.90;;;;;;4995853;28;20095;-78
2022/03/08 08:43:34;;;;;;;17.60;10.18;;;4.70;99.90;;;;;;4995398;28;20052;-78
2022/03/08 08:46:00;;;;;;;14.68;9.57;;;4.70;99.90;;;;;;4995752;28;20038;-79
2022/03/08 08:48:26;;;;;;;13.38;9.10;;;4.80;99.90;;;;;;4995562;28;20050;-79
2022/03/08 08:50:52;;;;;;;18.75;10.65;;;4.90;99.90;;;;;;4996031;28;20583;-79
2022/03/08 08:53:19;;;;;;;14.73;10.18;;;4.90;99.90;;;;;;4995304;28;20406;-79
2022/03/08 08:55:45;;;;;;;17.35;10.82;;;5.00;99.90;;;;;;4995531;28;20069;-79
2022/03/08 08:58:10;;;;;;;16.08;10.52;;;5.10;99.90;;;;;;4996039;28;20092;-79
2022/03/08 09:00:36;;;;;;;14.27;10.32;;;5.20;99.90;;;;;;4995861;28;20477;-79
2022/03/08 09:03:02;;;;;;;16.10;10.93;;;5.30;99.90;;;;;;4995966;28;20493;-79
2022/03/08 09:05:28;;;;;;;14.23;8.98;;;5.40;99.90;;;;;;4995626;28;20485;-79
2022/03/08 09:07:54;;;;;;;15.93;10.45;;;5.50;99.90;;;;;;4994811;28;20157;-79
2022/03/08 09:10:22;;;;;;;14.68;9.65;;;5.60;99.90;;;;;;4995443;28;20060;-79
2022/03/08 09:12:51;;;;;;;16.08;10.05;;;5.70;99.90;;;;;;4995893;28;20033;-79
2022/03/08 09:15:18;;;;;;;16.05;10.30;;;5.80;99.90;;;;;;4995615;28;20046;-79
2022/03/08 09:17:44;;;;;;;14.10;9.02;;;5.90;99.90;;;;;;4995258;28;20049;-78
2022/03/08 09:20:10;;;;;;;16.35;10.98;;;5.90;99.90;;;;;;4995814;28;20093;-79
2022/03/08 09:22:37;;;;;;;15.90;9.65;;;6.10;99.90;;;;;;4994979;28;20141;-79
2022/03/08 09:25:03;;;;;;;15.50;9.20;;;6.20;99.90;;;;;;4976285;28;20093;-80
2022/03/08 09:27:30;;;;;;;14.60;9.57;;;6.30;99.90;;;;;;4978457;28;20070;-79
2022/03/08 09:29:56;;;;;;;15.35;10.45;;;6.30;99.90;;;;;;4991689;28;20494;-79
2022/03/08 09:32:22;;;;;;;16.02;10.23;;;6.50;99.90;;;;;;4990845;28;20423;-80
2022/03/08 09:34:48;;;;;;;13.80;10.45;;;6.50;99.90;;;;;;4991077;28;20121;-79
2022/03/08 09:37:15;;;;;;;13.00;9.00;;;6.60;99.90;;;;;;4994909;28;20132;-79
2022/03/08 09:39:40;;;;;;;19.05;10.32;;;6.70;99.90;;;;;;5011608;28;20046;-79
2022/03/08 09:42:06;;;;;;;13.95;8.65;;;6.90;99.90;;;;;;4995923;28;20057;-79
2022/03/08 09:44:32;;;;;;;15.38;9.57;;;7.00;99.90;;;;;;4999003;28;20073;-80
2022/03/08 09:46:58;;;;;;;12.50;8.50;;;7.20;99.90;;;;;;4998604;28;20057;-79
2022/03/08 09:49:24;;;;;;;13.85;8.50;;;7.40;99.90;;;;;;4998920;28;20034;-79
2022/03/08 09:51:52;;;;;;;13.40;9.10;;;7.50;99.90;;;;;;4998977;28;20080;-82
2022/03/08 09:54:18;;;;;;;10.43;7.32;;;7.50;99.90;;;;;;4998749;28;20078;-81
2022/03/08 09:56:44;;;;;;;12.05;8.30;;;7.70;99.90;;;;;;4998829;28;20084;-80
2022/03/08 09:59:09;;;;;;;11.40;7.68;;;7.70;99.90;;;;;;5016301;28;20042;-79
2022/03/08 10:01:35;;;;;;;9.70;6.18;;;7.80;99.90;;;;;;4998952;28;20046;-79
2022/03/08 10:04:01;;;;;;;8.80;7.03;;;7.70;99.90;;;;;;4998993;28;20053;-83
2022/03/08 10:06:41;;;;;;;10.50;6.88;;;7.80;99.90;;;;;;4998675;28;20046;-80
2022/03/08 10:09:36;;;;;;;12.85;7.47;;;7.80;99.90;;;;;;4998813;28;20061;-82
2022/03/08 10:12:16;;;;;;;9.95;6.60;;;7.90;99.90;;;;;;4982255;28;20394;-81
2022/03/08 10:14:42;;;;;;;10.38;6.47;;;8.00;99.20;;;;;;4998400;28;20139;-80
2022/03/08 10:17:29;;;;;;;11.18;6.53;;;8.10;99.90;;;;;;4998400;28;20092;-80
2022/03/08 10:19:55;;;;;;;10.32;5.55;;;8.20;99.90;;;;;;4998437;28;20056;-80
2022/03/08 10:22:30;;;;;;;9.43;6.30;;;8.20;98.60;;;;;;4998627;28;20046;-79
2022/03/08 10:25:19;;;;;;;10.88;6.75;;;8.40;99.90;;;;;;4998505;28;20089;-80
2022/03/08 10:27:54;;;;;;;10.80;6.68;;;8.30;98.80;;;;;;4998014;28;20064;-79
2022/03/08 10:30:28;;;;;;;10.73;6.90;;;8.40;99.90;;;;;;4998159;28;20064;-79
2022/03/08 10:32:56;;;;;;;9.60;7.00;;;8.50;99.90;;;;;;4998132;28;20038;-81
2022/03/08 10:35:25;;;;;;;10.40;6.78;;;8.60;99.00;;;;;;4998193;28;20264;-81
2022/03/08 10:37:52;;;;;;;12.38;6.88;;;8.60;99.00;;;;;;4998131;28;20082;-81
2022/03/08 10:40:32;;;;;;;11.45;7.25;;;8.70;98.90;;;;;;4998042;28;20049;-80
2022/03/08 10:43:18;;;;;;;10.57;7.07;;;8.70;98.30;;;;;;4998393;28;20052;-80
2022/03/08 10:45:50;;;;;;;10.20;6.72;;;8.80;98.40;;;;;;4997764;28;20115;-81
2022/03/08 10:48:18;;;;;;;10.18;6.63;;;8.80;97.20;;;;;;4997914;28;20078;-79
2022/03/08 10:50:45;;;;;;;10.30;7.13;;;8.90;99.00;;;;;;4997972;28;20045;-80
2022/03/08 10:53:12;;;;;;;11.77;7.88;;;9.00;99.90;;;;;;4997652;28;20041;-82
2022/03/08 10:55:45;;;;;;;11.38;7.07;;;8.90;96.90;;;;;;4996954;28;20121;-79
2022/03/08 10:58:12;;;;;;;10.57;7.20;;;9.10;97.50;;;;;;4998040;28;20057;-80
2022/03/08 11:00:41;;;;;;;7.47;5.00;;;9.30;94.10;;;;;;4997917;28;20056;-80
2022/03/08 11:03:09;;;;;;;7.70;5.55;;;9.30;97.50;;;;;;4997858;28;20046;-80
2022/03/08 11:05:41;;;;;;;10.05;5.75;;;9.20;93.40;;;;;;4997514;28;20042;-78
2022/03/08 11:08:07;;;;;;;9.32;5.60;;;9.20;92.40;;;;;;4997488;28;20049;-80
2022/03/08 11:10:33;;;;;;;9.30;5.80;;;9.20;93.10;;;;;;4997138;28;20184;-81
2022/03/08 11:13:01;;;;;;;8.60;5.90;;;9.30;95.10;;;;;;4997421;28;20390;-82
2022/03/08 11:15:29;;;;;;;8.85;5.85;;;9.40;94.20;;;;;;4997275;28;20132;-81
2022/03/08 11:17:56;;;;;;;8.02;5.32;;;9.60;96.60;;;;;;4997286;28;20046;-80
2022/03/08 11:20:24;;;;;;;9.20;5.55;;;9.70;90.60;;;;;;4997217;28;20098;-80
2022/03/08 11:22:51;;;;;;;7.85;5.65;;;9.80;95.10;;;;;;4997461;28;20046;-80
2022/03/08 11:25:18;;;;;;;7.80;5.85;;;9.70;93.00;;;;;;4995944;28;20133;-82
2022/03/08 11:27:48;;;;;;;8.52;5.40;;;9.70;89.60;;;;;;4996799;28;20579;-81
2022/03/08 11:30:18;;;;;;;7.25;5.43;;;9.70;90.50;;;;;;4997342;28;20049;-80
2022/03/08 11:32:53;;;;;;;7.32;4.93;;;9.60;84.70;;;;;;4996867;28;20050;-81
2022/03/08 11:35:34;;;;;;;8.85;5.22;;;9.70;88.60;;;;;;4997622;28;20068;-84
2022/03/08 11:38:00;;;;;;;8.65;5.43;;;9.70;82.60;;;;;;4996938;28;20054;-81
2022/03/08 11:40:26;;;;;;;8.50;4.78;;;9.70;85.60;;;;;;4992171;28;20541;-81
2022/03/08 11:42:59;;;;;;;9.52;5.18;;;9.80;83.20;;;;;;4985505;28;20175;-81
2022/03/08 11:45:27;;;;;;;6.60;4.80;;;9.90;83.10;;;;;;4991684;28;20050;-81
2022/03/08 11:47:58;;;;;;;6.88;5.13;;;10.00;85.90;;;;;;4996669;28;20092;-80
2022/03/08 11:50:32;;;;;;;7.78;5.45;;;9.90;80.30;;;;;;4993420;28;20088;-79
2022/03/08 11:53:12;;;;;;;8.25;5.25;;;9.90;84.20;;;;;;4977612;28;20130;-79
2022/03/08 11:55:44;;;;;;;7.50;4.75;;;10.10;83.70;;;;;;4996549;28;20054;-80
2022/03/08 11:58:14;;;;;;;8.68;6.40;;;10.10;89.90;;;;;;4996596;28;20057;-79
2022/03/08 12:00:47;;;;;;;7.30;5.53;;;10.10;84.70;;;;;;4996611;28;20104;-80
2022/03/08 12:03:33;;;;;;;7.88;5.18;;;10.30;84.00;;;;;;4998030;28;20129;-80
2022/03/08 12:06:06;;;;;;;8.15;5.05;;;10.40;81.60;;;;;;4986090;28;20053;-79
2022/03/08 12:08:31;;;;;;;8.63;5.70;;;10.30;87.70;;;;;;4996435;28;20046;-80
2022/03/08 12:11:01;;;;;;;8.18;5.53;;;10.30;78.40;;;;;;4996371;28;20042;-79
2022/03/08 12:13:38;;;;;;;7.93;5.30;;;10.30;80.80;;;;;;4996230;28;20464;-80
2022/03/08 12:16:07;;;;;;;7.30;5.35;;;10.40;86.70;;;;;;5007461;28;20184;-80
2022/03/08 12:18:50;;;;;;;9.00;5.32;;;10.60;79.40;;;;;;4995998;28;20054;-80
2022/03/08 12:21:21;;;;;;;7.10;5.22;;;10.20;76.40;;;;;;4994303;28;20074;-80
2022/03/08 12:23:53;;;;;;;8.50;5.93;;;10.20;79.00;;;;;;4964424;28;20823;-82
2022/03/08 12:26:40;;;;;;;6.50;4.90;;;10.40;78.80;;;;;;4946016;28;20061;-86
2022/03/08 12:29:14;;;;;;;8.23;5.32;;;10.40;82.60;;;;;;4981274;28;20079;-87
2022/03/08 12:31:58;;;;;;;7.65;4.78;;;10.60;81.70;;;;;;4995418;28;20117;-81
2022/03/08 12:34:39;;;;;;;7.60;4.60;;;10.70;90.60;;;;;;4994116;28;20057;-80
2022/03/08 12:37:16;;;;;;;8.90;4.88;;;10.70;84.60;;;;;;4990522;28;20132;-80
2022/03/08 12:39:49;;;;;;;7.75;4.35;;;10.60;81.60;;;;;;4996157;28;20117;-80
2022/03/08 12:42:24;;;;;;;7.47;4.35;;;10.60;78.50;;;;;;4996144;28;20037;-82
2022/03/08 12:44:52;;;;;;;9.77;5.00;;;10.70;82.40;;;;;;4996328;28;20100;-92